Main page
METAR-TAF:

METAR-TAF

Airports :

Deauville – Normandie Airport

Deauville, France

latitude: 49-21-55N, longitude: 000-09-16E, elevation: 146 m

Current weather observation

The report was made 21 minutes ago, at 17:30 UTC
Wind 6 kt from the Southeast, varying between East/Northeast and South/Southwest
Temperature 9°C
Humidity 100%
Pressure 1021 hPa
Visibility: 3000 m
Overcast at a height of 200 ft
mist

METAR: LFRG 151730Z AUTO 14006KT 070V200 3000 BR OVC002 09/09 Q1021 BECMG 0500 FG VV///

Time: 18:51 (17:51 UTC)

Forecast

The report was made 56 minutes ago, at 16:55 UTC
Forecast valid from 15 at 16 UTC to 15 at 24 UTC
Wind 7 kt from the East/Southeast
Visibility: 3000 m
Overcast at a height of 200 ft
mist
Becoming
from 15 at 17 UTC to 15 at 20 UTC
Visibility: 0500 m
fog

TAF: LFRG 151655Z 1516/1524 12007KT 3000 BR OVC002 BECMG 1517/1520 0500 FG VV///

Weather observations and forecasts of more than 4000 airports (METAR and TAF reports).

The available stations are represented by yellow and red dots on the map.

Hover mouse over dot to see the name of the station.

Then click to see weather observations and forecasts.

To change the map : click on the green buttons with a black cross to zoom in, on the green button with a dash to zoom out, or on the green arrows for adjacent maps.


METAR-TAF: